sensor_id;sensor_type;location;lat;lon;timestamp;P1;durP1;ratioP1;P2;durP2;ratioP2
9007;SDS011;62813;51.424;6.762;2023-10-31T00:00:33;4.30;;;4.00;;
9007;SDS011;62813;51.424;6.762;2023-10-31T00:03:01;3.70;;;3.40;;
9007;SDS011;62813;51.424;6.762;2023-10-31T00:05:27;3.60;;;3.30;;
9007;SDS011;62813;51.424;6.762;2023-10-31T00:07:54;4.73;;;3.03;;
9007;SDS011;62813;51.424;6.762;2023-10-31T00:10:21;3.20;;;2.90;;
9007;SDS011;62813;51.424;6.762;2023-10-31T00:12:47;3.63;;;3.20;;
9007;SDS011;62813;51.424;6.762;2023-10-31T00:15:14;2.93;;;2.73;;
9007;SDS011;62813;51.424;6.762;2023-10-31T00:17:43;2.93;;;2.73;;
9007;SDS011;62813;51.424;6.762;2023-10-31T00:20:10;3.43;;;2.90;;
9007;SDS011;62813;51.424;6.762;2023-10-31T00:22:37;2.77;;;2.57;;
9007;SDS011;62813;51.424;6.762;2023-10-31T00:25:03;3.50;;;2.30;;
9007;SDS011;62813;51.424;6.762;2023-10-31T00:27:30;3.23;;;2.47;;
9007;SDS011;62813;51.424;6.762;2023-10-31T00:29:57;3.73;;;2.57;;
9007;SDS011;62813;51.424;6.762;2023-10-31T00:32:24;2.27;;;2.10;;
9007;SDS011;62813;51.424;6.762;2023-10-31T00:34:52;3.50;;;2.13;;
9007;SDS011;62813;51.424;6.762;2023-10-31T00:37:18;2.50;;;2.10;;
9007;SDS011;62813;51.424;6.762;2023-10-31T00:39:45;2.17;;;1.80;;
9007;SDS011;62813;51.424;6.762;2023-10-31T00:42:12;1.90;;;1.70;;
9007;SDS011;62813;51.424;6.762;2023-10-31T00:44:39;2.20;;;1.70;;
9007;SDS011;62813;51.424;6.762;2023-10-31T00:47:05;2.20;;;1.33;;
9007;SDS011;62813;51.424;6.762;2023-10-31T00:49:32;3.27;;;1.50;;
9007;SDS011;62813;51.424;6.762;2023-10-31T00:51:59;3.60;;;1.40;;
9007;SDS011;62813;51.424;6.762;2023-10-31T00:54:25;1.30;;;1.20;;
9007;SDS011;62813;51.424;6.762;2023-10-31T00:56:52;2.83;;;1.40;;
9007;SDS011;62813;51.424;6.762;2023-10-31T00:59:19;2.93;;;1.50;;
9007;SDS011;62813;51.424;6.762;2023-10-31T01:01:45;2.27;;;1.90;;
9007;SDS011;62813;51.424;6.762;2023-10-31T01:04:12;2.73;;;1.80;;
9007;SDS011;62813;51.424;6.762;2023-10-31T01:06:42;1.83;;;1.27;;
9007;SDS011;62813;51.424;6.762;2023-10-31T01:09:09;3.17;;;1.50;;
9007;SDS011;62813;51.424;6.762;2023-10-31T01:11:36;1.53;;;1.43;;
9007;SDS011;62813;51.424;6.762;2023-10-31T01:14:03;1.50;;;1.30;;
9007;SDS011;62813;51.424;6.762;2023-10-31T01:16:30;2.60;;;1.70;;
9007;SDS011;62813;51.424;6.762;2023-10-31T01:18:56;2.73;;;2.00;;
9007;SDS011;62813;51.424;6.762;2023-10-31T01:21:23;5.33;;;2.90;;
9007;SDS011;62813;51.424;6.762;2023-10-31T01:23:50;3.97;;;3.43;;
9007;SDS011;62813;51.424;6.762;2023-10-31T01:26:16;4.43;;;2.90;;
9007;SDS011;62813;51.424;6.762;2023-10-31T01:28:43;4.20;;;3.77;;
9007;SDS011;62813;51.424;6.762;2023-10-31T01:31:10;4.40;;;4.00;;
9007;SDS011;62813;51.424;6.762;2023-10-31T01:33:37;6.57;;;4.27;;
9007;SDS011;62813;51.424;6.762;2023-10-31T01:36:04;6.70;;;4.67;;
9007;SDS011;62813;51.424;6.762;2023-10-31T01:38:31;5.27;;;4.83;;
9007;SDS011;62813;51.424;6.762;2023-10-31T01:40:57;5.27;;;4.50;;
9007;SDS011;62813;51.424;6.762;2023-10-31T01:45:57;6.10;;;4.40;;
9007;SDS011;62813;51.424;6.762;2023-10-31T01:48:24;4.43;;;4.03;;
9007;SDS011;62813;51.424;6.762;2023-10-31T01:50:53;5.97;;;4.63;;
9007;SDS011;62813;51.424;6.762;2023-10-31T01:53:21;5.27;;;4.50;;
9007;SDS011;62813;51.424;6.762;2023-10-31T01:55:49;5.40;;;4.90;;
9007;SDS011;62813;51.424;6.762;2023-10-31T01:58:17;5.47;;;4.40;;
9007;SDS011;62813;51.424;6.762;2023-10-31T02:00:46;4.70;;;4.20;;
9007;SDS011;62813;51.424;6.762;2023-10-31T02:03:13;5.00;;;4.40;;
9007;SDS011;62813;51.424;6.762;2023-10-31T02:05:40;5.20;;;4.17;;
9007;SDS011;62813;51.424;6.762;2023-10-31T02:08:07;4.30;;;3.50;;
9007;SDS011;62813;51.424;6.762;2023-10-31T02:10:34;4.07;;;3.40;;
9007;SDS011;62813;51.424;6.762;2023-10-31T02:13:23;4.73;;;3.47;;
9007;SDS011;62813;51.424;6.762;2023-10-31T02:15:48;7.27;;;3.60;;
9007;SDS011;62813;51.424;6.762;2023-10-31T02:18:15;4.33;;;3.50;;
9007;SDS011;62813;51.424;6.762;2023-10-31T02:20:42;5.40;;;4.00;;
9007;SDS011;62813;51.424;6.762;2023-10-31T02:23:09;5.23;;;3.90;;
9007;SDS011;62813;51.424;6.762;2023-10-31T02:25:36;8.17;;;4.23;;
9007;SDS011;62813;51.424;6.762;2023-10-31T02:28:03;7.83;;;4.67;;
9007;SDS011;62813;51.424;6.762;2023-10-31T02:30:32;9.27;;;4.80;;
9007;SDS011;62813;51.424;6.762;2023-10-31T02:33:00;6.87;;;5.57;;
9007;SDS011;62813;51.424;6.762;2023-10-31T02:35:28;6.20;;;5.43;;
9007;SDS011;62813;51.424;6.762;2023-10-31T02:37:55;6.27;;;5.40;;
9007;SDS011;62813;51.424;6.762;2023-10-31T02:40:21;6.90;;;5.73;;
9007;SDS011;62813;51.424;6.762;2023-10-31T02:42:48;7.67;;;6.33;;
9007;SDS011;62813;51.424;6.762;2023-10-31T02:45:14;7.40;;;6.33;;
9007;SDS011;62813;51.424;6.762;2023-10-31T02:47:41;10.17;;;6.70;;
9007;SDS011;62813;51.424;6.762;2023-10-31T02:50:08;11.60;;;6.50;;
9007;SDS011;62813;51.424;6.762;2023-10-31T02:52:35;8.03;;;5.90;;
9007;SDS011;62813;51.424;6.762;2023-10-31T02:55:02;7.57;;;6.30;;
9007;SDS011;62813;51.424;6.762;2023-10-31T02:57:29;10.47;;;6.60;;
9007;SDS011;62813;51.424;6.762;2023-10-31T02:59:56;9.73;;;6.70;;
9007;SDS011;62813;51.424;6.762;2023-10-31T03:02:22;8.83;;;6.90;;
9007;SDS011;62813;51.424;6.762;2023-10-31T03:04:49;7.97;;;7.10;;
9007;SDS011;62813;51.424;6.762;2023-10-31T03:07:16;10.77;;;7.37;;
9007;SDS011;62813;51.424;6.762;2023-10-31T03:09:42;9.20;;;7.47;;
9007;SDS011;62813;51.424;6.762;2023-10-31T03:12:09;8.43;;;6.63;;
9007;SDS011;62813;51.424;6.762;2023-10-31T03:14:36;9.23;;;7.50;;
9007;SDS011;62813;51.424;6.762;2023-10-31T03:17:02;9.73;;;7.83;;
9007;SDS011;62813;51.424;6.762;2023-10-31T03:19:29;9.90;;;7.73;;
9007;SDS011;62813;51.424;6.762;2023-10-31T03:21:56;8.80;;;7.33;;
9007;SDS011;62813;51.424;6.762;2023-10-31T03:24:25;9.77;;;7.87;;
9007;SDS011;62813;51.424;6.762;2023-10-31T03:26:51;9.80;;;7.43;;
9007;SDS011;62813;51.424;6.762;2023-10-31T03:29:18;10.63;;;7.80;;
9007;SDS011;62813;51.424;6.762;2023-10-31T03:31:45;10.13;;;7.67;;
9007;SDS011;62813;51.424;6.762;2023-10-31T03:34:12;10.70;;;7.80;;
9007;SDS011;62813;51.424;6.762;2023-10-31T03:36:39;8.23;;;7.30;;
9007;SDS011;62813;51.424;6.762;2023-10-31T03:39:05;9.90;;;7.90;;
9007;SDS011;62813;51.424;6.762;2023-10-31T03:41:32;9.30;;;7.93;;
9007;SDS011;62813;51.424;6.762;2023-10-31T03:43:58;10.00;;;7.60;;
9007;SDS011;62813;51.424;6.762;2023-10-31T03:46:25;10.67;;;7.87;;
9007;SDS011;62813;51.424;6.762;2023-10-31T03:48:52;8.83;;;7.37;;
9007;SDS011;62813;51.424;6.762;2023-10-31T03:51:19;10.00;;;7.40;;
9007;SDS011;62813;51.424;6.762;2023-10-31T03:53:45;10.53;;;7.17;;
9007;SDS011;62813;51.424;6.762;2023-10-31T03:56:12;11.53;;;7.57;;
9007;SDS011;62813;51.424;6.762;2023-10-31T03:58:40;10.10;;;8.20;;
9007;SDS011;62813;51.424;6.762;2023-10-31T04:01:11;8.40;;;7.40;;
9007;SDS011;62813;51.424;6.762;2023-10-31T04:03:38;10.47;;;7.50;;
9007;SDS011;62813;51.424;6.762;2023-10-31T04:06:05;7.93;;;7.03;;
9007;SDS011;62813;51.424;6.762;2023-10-31T04:08:31;8.30;;;6.67;;
9007;SDS011;62813;51.424;6.762;2023-10-31T04:10:58;7.73;;;6.63;;
9007;SDS011;62813;51.424;6.762;2023-10-31T04:13:25;11.23;;;6.97;;
9007;SDS011;62813;51.424;6.762;2023-10-31T04:15:51;8.57;;;7.23;;
9007;SDS011;62813;51.424;6.762;2023-10-31T04:18:18;8.77;;;7.67;;
9007;SDS011;62813;51.424;6.762;2023-10-31T04:20:45;13.23;;;10.30;;
9007;SDS011;62813;51.424;6.762;2023-10-31T04:23:12;12.90;;;8.80;;
9007;SDS011;62813;51.424;6.762;2023-10-31T04:25:39;9.67;;;8.57;;
9007;SDS011;62813;51.424;6.762;2023-10-31T04:28:06;10.70;;;8.03;;
9007;SDS011;62813;51.424;6.762;2023-10-31T04:30:32;11.17;;;7.83;;
9007;SDS011;62813;51.424;6.762;2023-10-31T04:32:59;9.90;;;7.97;;
9007;SDS011;62813;51.424;6.762;2023-10-31T04:35:25;10.37;;;8.27;;
9007;SDS011;62813;51.424;6.762;2023-10-31T04:37:52;9.37;;;7.30;;
9007;SDS011;62813;51.424;6.762;2023-10-31T04:40:19;9.37;;;7.27;;
9007;SDS011;62813;51.424;6.762;2023-10-31T04:42:46;7.80;;;6.43;;
9007;SDS011;62813;51.424;6.762;2023-10-31T04:45:13;7.97;;;7.00;;
9007;SDS011;62813;51.424;6.762;2023-10-31T04:47:41;7.90;;;7.10;;
9007;SDS011;62813;51.424;6.762;2023-10-31T04:50:08;6.97;;;6.03;;
9007;SDS011;62813;51.424;6.762;2023-10-31T04:52:35;9.53;;;5.77;;
9007;SDS011;62813;51.424;6.762;2023-10-31T04:55:02;10.37;;;7.93;;
9007;SDS011;62813;51.424;6.762;2023-10-31T04:57:29;11.10;;;6.03;;
9007;SDS011;62813;51.424;6.762;2023-10-31T04:59:56;7.77;;;6.27;;
9007;SDS011;62813;51.424;6.762;2023-10-31T05:02:24;7.37;;;5.93;;
9007;SDS011;62813;51.424;6.762;2023-10-31T05:04:51;8.60;;;5.67;;
9007;SDS011;62813;51.424;6.762;2023-10-31T05:07:18;6.90;;;5.57;;
9007;SDS011;62813;51.424;6.762;2023-10-31T05:09:45;6.37;;;5.73;;
9007;SDS011;62813;51.424;6.762;2023-10-31T05:12:12;6.10;;;5.50;;
9007;SDS011;62813;51.424;6.762;2023-10-31T05:14:40;7.10;;;6.20;;
9007;SDS011;62813;51.424;6.762;2023-10-31T05:17:07;8.67;;;6.60;;
9007;SDS011;62813;51.424;6.762;2023-10-31T05:19:34;7.90;;;6.17;;
9007;SDS011;62813;51.424;6.762;2023-10-31T05:22:01;8.63;;;6.37;;
9007;SDS011;62813;51.424;6.762;2023-10-31T05:24:27;7.30;;;6.60;;
9007;SDS011;62813;51.424;6.762;2023-10-31T05:26:54;8.47;;;6.37;;
9007;SDS011;62813;51.424;6.762;2023-10-31T05:29:21;8.30;;;6.70;;
9007;SDS011;62813;51.424;6.762;2023-10-31T05:31:47;9.30;;;6.57;;
9007;SDS011;62813;51.424;6.762;2023-10-31T05:34:14;9.77;;;6.90;;
9007;SDS011;62813;51.424;6.762;2023-10-31T05:36:41;9.83;;;7.40;;
9007;SDS011;62813;51.424;6.762;2023-10-31T05:39:08;7.90;;;6.70;;
9007;SDS011;62813;51.424;6.762;2023-10-31T05:41:36;10.57;;;7.53;;
9007;SDS011;62813;51.424;6.762;2023-10-31T05:44:02;9.23;;;7.33;;
9007;SDS011;62813;51.424;6.762;2023-10-31T05:46:29;9.67;;;7.60;;
9007;SDS011;62813;51.424;6.762;2023-10-31T05:48:56;8.47;;;6.83;;
9007;SDS011;62813;51.424;6.762;2023-10-31T05:51:22;9.00;;;7.27;;
9007;SDS011;62813;51.424;6.762;2023-10-31T05:53:51;7.87;;;7.07;;
9007;SDS011;62813;51.424;6.762;2023-10-31T05:56:18;7.53;;;6.73;;
9007;SDS011;62813;51.424;6.762;2023-10-31T05:58:45;10.30;;;7.30;;
9007;SDS011;62813;51.424;6.762;2023-10-31T06:01:12;9.07;;;7.60;;
9007;SDS011;62813;51.424;6.762;2023-10-31T06:03:40;7.27;;;6.43;;
9007;SDS011;62813;51.424;6.762;2023-10-31T06:06:10;10.93;;;7.50;;
9007;SDS011;62813;51.424;6.762;2023-10-31T06:08:39;9.37;;;6.43;;
9007;SDS011;62813;51.424;6.762;2023-10-31T06:11:06;7.27;;;6.30;;
9007;SDS011;62813;51.424;6.762;2023-10-31T06:13:33;8.07;;;6.83;;
9007;SDS011;62813;51.424;6.762;2023-10-31T06:16:00;9.60;;;7.13;;
9007;SDS011;62813;51.424;6.762;2023-10-31T06:18:27;6.97;;;6.33;;
9007;SDS011;62813;51.424;6.762;2023-10-31T06:20:55;6.83;;;6.13;;
9007;SDS011;62813;51.424;6.762;2023-10-31T06:23:22;6.60;;;6.00;;
9007;SDS011;62813;51.424;6.762;2023-10-31T06:25:49;8.13;;;5.73;;
9007;SDS011;62813;51.424;6.762;2023-10-31T06:28:16;7.00;;;6.30;;
9007;SDS011;62813;51.424;6.762;2023-10-31T06:30:45;7.47;;;6.77;;
9007;SDS011;62813;51.424;6.762;2023-10-31T06:33:12;7.07;;;6.47;;
9007;SDS011;62813;51.424;6.762;2023-10-31T06:35:39;10.00;;;6.23;;
9007;SDS011;62813;51.424;6.762;2023-10-31T06:38:05;7.77;;;6.93;;
9007;SDS011;62813;51.424;6.762;2023-10-31T06:40:32;7.63;;;6.83;;
9007;SDS011;62813;51.424;6.762;2023-10-31T06:42:59;9.93;;;7.47;;
9007;SDS011;62813;51.424;6.762;2023-10-31T06:45:26;9.40;;;7.17;;
9007;SDS011;62813;51.424;6.762;2023-10-31T06:47:52;7.83;;;7.13;;
9007;SDS011;62813;51.424;6.762;2023-10-31T06:50:20;7.40;;;6.73;;
9007;SDS011;62813;51.424;6.762;2023-10-31T06:52:47;7.40;;;6.70;;
9007;SDS011;62813;51.424;6.762;2023-10-31T06:55:15;7.43;;;6.70;;
9007;SDS011;62813;51.424;6.762;2023-10-31T06:57:41;7.63;;;6.70;;
9007;SDS011;62813;51.424;6.762;2023-10-31T07:00:10;9.77;;;7.60;;
9007;SDS011;62813;51.424;6.762;2023-10-31T07:02:38;19.37;;;9.07;;
9007;SDS011;62813;51.424;6.762;2023-10-31T07:05:05;7.90;;;6.80;;
9007;SDS011;62813;51.424;6.762;2023-10-31T07:07:32;21.20;;;8.53;;
9007;SDS011;62813;51.424;6.762;2023-10-31T07:09:59;8.53;;;7.43;;
9007;SDS011;62813;51.424;6.762;2023-10-31T07:12:26;11.90;;;8.27;;
9007;SDS011;62813;51.424;6.762;2023-10-31T07:14:52;12.43;;;8.40;;
9007;SDS011;62813;51.424;6.762;2023-10-31T07:17:19;12.30;;;8.47;;
9007;SDS011;62813;51.424;6.762;2023-10-31T07:19:46;12.57;;;8.43;;
9007;SDS011;62813;51.424;6.762;2023-10-31T07:22:13;8.87;;;7.97;;
9007;SDS011;62813;51.424;6.762;2023-10-31T07:24:39;11.93;;;9.30;;
9007;SDS011;62813;51.424;6.762;2023-10-31T07:27:06;10.47;;;9.17;;
9007;SDS011;62813;51.424;6.762;2023-10-31T07:29:33;9.93;;;8.47;;
9007;SDS011;62813;51.424;6.762;2023-10-31T07:31:59;10.70;;;9.67;;
9007;SDS011;62813;51.424;6.762;2023-10-31T07:34:27;10.43;;;9.30;;
9007;SDS011;62813;51.424;6.762;2023-10-31T07:36:55;11.27;;;10.07;;
9007;SDS011;62813;51.424;6.762;2023-10-31T07:39:23;14.37;;;10.70;;
9007;SDS011;62813;51.424;6.762;2023-10-31T07:41:49;11.03;;;9.80;;
9007;SDS011;62813;51.424;6.762;2023-10-31T07:44:16;10.87;;;9.33;;
9007;SDS011;62813;51.424;6.762;2023-10-31T07:46:43;10.70;;;9.50;;
9007;SDS011;62813;51.424;6.762;2023-10-31T07:49:09;10.47;;;9.37;;
9007;SDS011;62813;51.424;6.762;2023-10-31T07:51:36;10.37;;;9.40;;
9007;SDS011;62813;51.424;6.762;2023-10-31T07:54:03;11.37;;;9.53;;
9007;SDS011;62813;51.424;6.762;2023-10-31T07:56:29;12.37;;;9.53;;
9007;SDS011;62813;51.424;6.762;2023-10-31T07:58:56;10.23;;;8.80;;
9007;SDS011;62813;51.424;6.762;2023-10-31T08:01:24;9.87;;;8.97;;
9007;SDS011;62813;51.424;6.762;2023-10-31T08:03:50;10.83;;;9.53;;
9007;SDS011;62813;51.424;6.762;2023-10-31T08:06:17;10.50;;;9.43;;
9007;SDS011;62813;51.424;6.762;2023-10-31T08:08:44;9.63;;;8.73;;
9007;SDS011;62813;51.424;6.762;2023-10-31T08:11:11;13.70;;;9.47;;
9007;SDS011;62813;51.424;6.762;2023-10-31T08:13:38;10.73;;;9.07;;
9007;SDS011;62813;51.424;6.762;2023-10-31T08:16:05;12.03;;;9.30;;
9007;SDS011;62813;51.424;6.762;2023-10-31T08:18:32;9.53;;;8.63;;
9007;SDS011;62813;51.424;6.762;2023-10-31T08:20:59;9.97;;;8.33;;
9007;SDS011;62813;51.424;6.762;2023-10-31T08:23:27;12.07;;;9.10;;
9007;SDS011;62813;51.424;6.762;2023-10-31T08:25:55;11.17;;;9.30;;
9007;SDS011;62813;51.424;6.762;2023-10-31T08:28:22;8.60;;;7.70;;
9007;SDS011;62813;51.424;6.762;2023-10-31T08:30:49;9.30;;;7.87;;
9007;SDS011;62813;51.424;6.762;2023-10-31T08:33:16;10.63;;;7.70;;
9007;SDS011;62813;51.424;6.762;2023-10-31T08:35:43;7.43;;;6.70;;
9007;SDS011;62813;51.424;6.762;2023-10-31T08:38:09;8.00;;;7.20;;
9007;SDS011;62813;51.424;6.762;2023-10-31T08:40:49;7.27;;;6.50;;
9007;SDS011;62813;51.424;6.762;2023-10-31T08:43:15;7.67;;;6.97;;
9007;SDS011;62813;51.424;6.762;2023-10-31T08:45:43;6.97;;;5.87;;
9007;SDS011;62813;51.424;6.762;2023-10-31T08:48:09;7.40;;;6.63;;
9007;SDS011;62813;51.424;6.762;2023-10-31T08:50:36;9.60;;;6.00;;
9007;SDS011;62813;51.424;6.762;2023-10-31T08:53:03;7.27;;;5.80;;
9007;SDS011;62813;51.424;6.762;2023-10-31T08:55:31;8.23;;;5.60;;
9007;SDS011;62813;51.424;6.762;2023-10-31T08:57:58;6.07;;;5.57;;
9007;SDS011;62813;51.424;6.762;2023-10-31T09:00:24;9.10;;;5.83;;
9007;SDS011;62813;51.424;6.762;2023-10-31T09:02:51;6.03;;;5.07;;
9007;SDS011;62813;51.424;6.762;2023-10-31T09:05:18;7.30;;;5.10;;
9007;SDS011;62813;51.424;6.762;2023-10-31T09:07:45;5.67;;;5.07;;
9007;SDS011;62813;51.424;6.762;2023-10-31T09:10:12;5.77;;;4.90;;
9007;SDS011;62813;51.424;6.762;2023-10-31T09:12:39;7.63;;;4.70;;
9007;SDS011;62813;51.424;6.762;2023-10-31T09:15:06;5.43;;;4.93;;
9007;SDS011;62813;51.424;6.762;2023-10-31T09:17:33;7.53;;;4.60;;
9007;SDS011;62813;51.424;6.762;2023-10-31T09:20:00;7.30;;;5.00;;
9007;SDS011;62813;51.424;6.762;2023-10-31T09:22:26;6.10;;;4.97;;
9007;SDS011;62813;51.424;6.762;2023-10-31T09:24:53;6.60;;;4.70;;
9007;SDS011;62813;51.424;6.762;2023-10-31T09:27:20;6.10;;;4.70;;
9007;SDS011;62813;51.424;6.762;2023-10-31T09:29:47;7.43;;;4.80;;
9007;SDS011;62813;51.424;6.762;2023-10-31T09:32:14;8.50;;;5.80;;
9007;SDS011;62813;51.424;6.762;2023-10-31T09:34:41;8.70;;;5.90;;
9007;SDS011;62813;51.424;6.762;2023-10-31T09:37:08;6.50;;;5.50;;
9007;SDS011;62813;51.424;6.762;2023-10-31T09:39:35;6.47;;;5.87;;
9007;SDS011;62813;51.424;6.762;2023-10-31T09:42:01;11.40;;;5.40;;
9007;SDS011;62813;51.424;6.762;2023-10-31T09:44:28;5.73;;;4.93;;
9007;SDS011;62813;51.424;6.762;2023-10-31T09:46:55;6.10;;;5.50;;
9007;SDS011;62813;51.424;6.762;2023-10-31T09:49:23;6.50;;;5.70;;
9007;SDS011;62813;51.424;6.762;2023-10-31T09:51:50;6.87;;;5.70;;
9007;SDS011;62813;51.424;6.762;2023-10-31T09:54:18;10.90;;;6.00;;
9007;SDS011;62813;51.424;6.762;2023-10-31T09:56:45;7.97;;;5.60;;
9007;SDS011;62813;51.424;6.762;2023-10-31T09:59:14;7.10;;;5.60;;
9007;SDS011;62813;51.424;6.762;2023-10-31T10:01:42;7.60;;;5.23;;
9007;SDS011;62813;51.424;6.762;2023-10-31T10:04:09;6.57;;;5.53;;
9007;SDS011;62813;51.424;6.762;2023-10-31T10:06:39;8.60;;;5.93;;
9007;SDS011;62813;51.424;6.762;2023-10-31T10:09:27;8.77;;;5.03;;
9007;SDS011;62813;51.424;6.762;2023-10-31T10:11:55;7.10;;;5.97;;
9007;SDS011;62813;51.424;6.762;2023-10-31T10:14:23;9.10;;;5.70;;
9007;SDS011;62813;51.424;6.762;2023-10-31T10:16:50;7.73;;;6.33;;
9007;SDS011;62813;51.424;6.762;2023-10-31T10:19:17;6.90;;;5.57;;
9007;SDS011;62813;51.424;6.762;2023-10-31T10:21:51;6.37;;;5.77;;
9007;SDS011;62813;51.424;6.762;2023-10-31T10:24:22;12.07;;;6.10;;
9007;SDS011;62813;51.424;6.762;2023-10-31T10:26:51;7.07;;;5.80;;
9007;SDS011;62813;51.424;6.762;2023-10-31T10:29:18;6.40;;;4.73;;
9007;SDS011;62813;51.424;6.762;2023-10-31T10:31:45;7.00;;;5.27;;
9007;SDS011;62813;51.424;6.762;2023-10-31T10:34:15;8.93;;;4.80;;
9007;SDS011;62813;51.424;6.762;2023-10-31T10:36:47;7.80;;;5.10;;
9007;SDS011;62813;51.424;6.762;2023-10-31T10:39:19;7.43;;;4.80;;
9007;SDS011;62813;51.424;6.762;2023-10-31T10:41:52;5.77;;;4.80;;
9007;SDS011;62813;51.424;6.762;2023-10-31T10:44:31;7.33;;;4.57;;
9007;SDS011;62813;51.424;6.762;2023-10-31T10:47:06;7.40;;;4.20;;
9007;SDS011;62813;51.424;6.762;2023-10-31T10:49:34;8.53;;;4.50;;
9007;SDS011;62813;51.424;6.762;2023-10-31T10:52:38;8.40;;;4.60;;
9007;SDS011;62813;51.424;6.762;2023-10-31T10:55:11;8.63;;;4.43;;
9007;SDS011;62813;51.424;6.762;2023-10-31T10:57:47;9.13;;;4.10;;
9007;SDS011;62813;51.424;6.762;2023-10-31T11:00:14;5.97;;;4.07;;
9007;SDS011;62813;51.424;6.762;2023-10-31T11:02:41;7.43;;;3.80;;
9007;SDS011;62813;51.424;6.762;2023-10-31T11:05:10;7.30;;;3.90;;
9007;SDS011;62813;51.424;6.762;2023-10-31T11:07:37;5.47;;;3.90;;
9007;SDS011;62813;51.424;6.762;2023-10-31T11:10:05;10.00;;;4.07;;
9007;SDS011;62813;51.424;6.762;2023-10-31T11:12:32;6.20;;;4.10;;
9007;SDS011;62813;51.424;6.762;2023-10-31T11:15:00;6.50;;;3.60;;
9007;SDS011;62813;51.424;6.762;2023-10-31T11:17:37;7.63;;;3.40;;
9007;SDS011;62813;51.424;6.762;2023-10-31T11:20:07;6.57;;;3.87;;
9007;SDS011;62813;51.424;6.762;2023-10-31T11:22:45;6.23;;;3.73;;
9007;SDS011;62813;51.424;6.762;2023-10-31T11:25:18;7.07;;;3.60;;
9007;SDS011;62813;51.424;6.762;2023-10-31T11:28:11;6.80;;;3.73;;
9007;SDS011;62813;51.424;6.762;2023-10-31T11:30:39;7.43;;;3.67;;
9007;SDS011;62813;51.424;6.762;2023-10-31T11:33:07;4.23;;;2.93;;
9007;SDS011;62813;51.424;6.762;2023-10-31T11:35:39;6.37;;;2.93;;
9007;SDS011;62813;51.424;6.762;2023-10-31T11:38:07;6.23;;;3.00;;
9007;SDS011;62813;51.424;6.762;2023-10-31T11:40:36;8.03;;;3.30;;
9007;SDS011;62813;51.424;6.762;2023-10-31T11:43:04;8.07;;;3.30;;
9007;SDS011;62813;51.424;6.762;2023-10-31T11:45:50;6.60;;;2.97;;
9007;SDS011;62813;51.424;6.762;2023-10-31T11:48:16;4.50;;;2.70;;
9007;SDS011;62813;51.424;6.762;2023-10-31T11:50:43;5.47;;;2.37;;
9007;SDS011;62813;51.424;6.762;2023-10-31T11:53:10;5.47;;;3.03;;
9007;SDS011;62813;51.424;6.762;2023-10-31T11:55:40;10.37;;;7.10;;
9007;SDS011;62813;51.424;6.762;2023-10-31T11:58:23;20.70;;;12.30;;
9007;SDS011;62813;51.424;6.762;2023-10-31T12:00:52;7.97;;;5.03;;
9007;SDS011;62813;51.424;6.762;2023-10-31T12:03:27;8.97;;;2.90;;
9007;SDS011;62813;51.424;6.762;2023-10-31T12:06:09;5.93;;;2.07;;
9007;SDS011;62813;51.424;6.762;2023-10-31T12:13:32;6.17;;;2.60;;
9007;SDS011;62813;51.424;6.762;2023-10-31T12:15:59;4.77;;;2.70;;
9007;SDS011;62813;51.424;6.762;2023-10-31T12:18:27;6.03;;;2.83;;
9007;SDS011;62813;51.424;6.762;2023-10-31T12:20:55;5.53;;;3.17;;
9007;SDS011;62813;51.424;6.762;2023-10-31T12:23:22;5.57;;;2.20;;
9007;SDS011;62813;51.424;6.762;2023-10-31T12:25:52;5.07;;;2.40;;
9007;SDS011;62813;51.424;6.762;2023-10-31T12:28:24;5.07;;;2.30;;
9007;SDS011;62813;51.424;6.762;2023-10-31T12:30:52;4.73;;;2.20;;
9007;SDS011;62813;51.424;6.762;2023-10-31T12:33:21;5.43;;;2.60;;
9007;SDS011;62813;51.424;6.762;2023-10-31T12:35:48;10.03;;;2.73;;
9007;SDS011;62813;51.424;6.762;2023-10-31T12:38:15;8.17;;;2.13;;
9007;SDS011;62813;51.424;6.762;2023-10-31T12:40:43;3.33;;;1.77;;
9007;SDS011;62813;51.424;6.762;2023-10-31T12:43:11;11.20;;;5.53;;
9007;SDS011;62813;51.424;6.762;2023-10-31T12:45:38;11.33;;;5.63;;
9007;SDS011;62813;51.424;6.762;2023-10-31T12:50:34;7.47;;;5.00;;
9007;SDS011;62813;51.424;6.762;2023-10-31T12:53:06;20.23;;;11.27;;
9007;SDS011;62813;51.424;6.762;2023-10-31T12:55:39;5.43;;;2.43;;
9007;SDS011;62813;51.424;6.762;2023-10-31T12:58:07;5.40;;;1.60;;
9007;SDS011;62813;51.424;6.762;2023-10-31T13:00:37;4.03;;;1.70;;
9007;SDS011;62813;51.424;6.762;2023-10-31T13:05:32;3.67;;;1.60;;
9007;SDS011;62813;51.424;6.762;2023-10-31T13:07:59;2.67;;;1.77;;
9007;SDS011;62813;51.424;6.762;2023-10-31T13:10:27;5.57;;;1.90;;
9007;SDS011;62813;51.424;6.762;2023-10-31T13:13:00;4.40;;;1.77;;
9007;SDS011;62813;51.424;6.762;2023-10-31T13:15:29;3.87;;;2.00;;
9007;SDS011;62813;51.424;6.762;2023-10-31T13:17:56;4.20;;;1.83;;
9007;SDS011;62813;51.424;6.762;2023-10-31T13:20:23;4.33;;;2.03;;
9007;SDS011;62813;51.424;6.762;2023-10-31T13:22:50;4.50;;;2.20;;
9007;SDS011;62813;51.424;6.762;2023-10-31T13:25:17;7.67;;;2.20;;
9007;SDS011;62813;51.424;6.762;2023-10-31T13:27:44;4.60;;;2.30;;
9007;SDS011;62813;51.424;6.762;2023-10-31T13:30:13;2.47;;;1.77;;
9007;SDS011;62813;51.424;6.762;2023-10-31T13:32:40;3.20;;;1.93;;
9007;SDS011;62813;51.424;6.762;2023-10-31T13:35:07;3.00;;;1.57;;
9007;SDS011;62813;51.424;6.762;2023-10-31T13:37:38;3.83;;;1.60;;
9007;SDS011;62813;51.424;6.762;2023-10-31T13:40:05;3.40;;;1.67;;
9007;SDS011;62813;51.424;6.762;2023-10-31T13:42:35;2.53;;;1.80;;
9007;SDS011;62813;51.424;6.762;2023-10-31T13:45:02;3.40;;;1.50;;
9007;SDS011;62813;51.424;6.762;2023-10-31T13:47:32;4.73;;;1.63;;
9007;SDS011;62813;51.424;6.762;2023-10-31T13:49:59;2.47;;;1.90;;
9007;SDS011;62813;51.424;6.762;2023-10-31T13:52:26;5.67;;;1.90;;
9007;SDS011;62813;51.424;6.762;2023-10-31T13:54:53;4.23;;;1.53;;
9007;SDS011;62813;51.424;6.762;2023-10-31T13:57:19;3.33;;;1.50;;
9007;SDS011;62813;51.424;6.762;2023-10-31T13:59:46;2.20;;;1.40;;
9007;SDS011;62813;51.424;6.762;2023-10-31T14:02:13;4.97;;;1.80;;
9007;SDS011;62813;51.424;6.762;2023-10-31T14:04:40;4.47;;;1.73;;
9007;SDS011;62813;51.424;6.762;2023-10-31T14:07:08;4.03;;;1.90;;
9007;SDS011;62813;51.424;6.762;2023-10-31T14:09:35;4.43;;;2.20;;
9007;SDS011;62813;51.424;6.762;2023-10-31T14:12:02;3.83;;;1.73;;
9007;SDS011;62813;51.424;6.762;2023-10-31T14:14:29;10.10;;;5.13;;
9007;SDS011;62813;51.424;6.762;2023-10-31T14:16:55;7.93;;;3.40;;
9007;SDS011;62813;51.424;6.762;2023-10-31T14:19:22;5.33;;;3.67;;
9007;SDS011;62813;51.424;6.762;2023-10-31T14:21:49;3.80;;;2.20;;
9007;SDS011;62813;51.424;6.762;2023-10-31T14:24:16;19.93;;;12.57;;
9007;SDS011;62813;51.424;6.762;2023-10-31T14:26:43;12.07;;;7.53;;
9007;SDS011;62813;51.424;6.762;2023-10-31T14:29:10;5.77;;;3.00;;
9007;SDS011;62813;51.424;6.762;2023-10-31T14:31:40;2.20;;;1.70;;
9007;SDS011;62813;51.424;6.762;2023-10-31T14:34:08;4.13;;;1.70;;
9007;SDS011;62813;51.424;6.762;2023-10-31T14:36:35;5.63;;;3.20;;
9007;SDS011;62813;51.424;6.762;2023-10-31T14:39:02;11.03;;;7.20;;
9007;SDS011;62813;51.424;6.762;2023-10-31T14:41:28;6.93;;;5.03;;
9007;SDS011;62813;51.424;6.762;2023-10-31T14:44:00;8.33;;;5.43;;
9007;SDS011;62813;51.424;6.762;2023-10-31T14:46:28;5.17;;;2.10;;
9007;SDS011;62813;51.424;6.762;2023-10-31T14:48:55;3.37;;;1.70;;
9007;SDS011;62813;51.424;6.762;2023-10-31T14:51:22;4.83;;;1.97;;
9007;SDS011;62813;51.424;6.762;2023-10-31T14:53:49;4.73;;;2.00;;
9007;SDS011;62813;51.424;6.762;2023-10-31T14:56:16;3.27;;;1.80;;
9007;SDS011;62813;51.424;6.762;2023-10-31T14:58:42;6.73;;;2.13;;
9007;SDS011;62813;51.424;6.762;2023-10-31T15:01:09;4.40;;;1.90;;
9007;SDS011;62813;51.424;6.762;2023-10-31T15:03:36;4.73;;;1.70;;
9007;SDS011;62813;51.424;6.762;2023-10-31T15:06:03;3.70;;;1.80;;
9007;SDS011;62813;51.424;6.762;2023-10-31T15:08:31;3.60;;;1.80;;
9007;SDS011;62813;51.424;6.762;2023-10-31T15:10:58;3.77;;;1.80;;
9007;SDS011;62813;51.424;6.762;2023-10-31T15:13:25;4.47;;;1.80;;